Change the Weather History Date:

Tuesday, March 11, 2014

  Actual Average Record
Temperature  
Mean Temperature 35 °F -  
Max Temperature 42 °F 37 °F 62 °F (2012)
Min Temperature 28 °F 19 °F -8 °F (1969)
Degree Days  
Heating Degree Days 30    
Moisture  
Dew Point 27 °F    
Average Humidity 69    
Maximum Humidity 93    
Minimum Humidity 49    
Precipitation  
Precipitation 0.05 in - - ()
Sea Level Pressure  
Sea Level Pressure 29.84 in    
Wind  
Wind Speed 8 mph (NNW)    
Max Wind Speed 16 mph    
Max Gust Speed 23 mph    
Visibility 10 miles    
Events Rain    
Averages and records for this station are not official NWS values.
T = Trace of Precipitation, MM = Missing Value Source: NWS Daily Summary

Daily Weather History Graph

Daily Weather History Graph

Search for Another Location

Airport or City:

Trip Planner

Search our weather history database for the weather conditions in past years. The results will help you decide how hot, cold, wet, or windy it might be!

Date:

Astronomy

Mar. 11, 2014 Rise Set
Actual Time 7:32 AM CDT 7:13 PM CDT
Civil Twilight 7:03 AM CDT 7:42 PM CDT
Nautical Twilight 6:29 AM CDT 8:16 PM CDT
Astronomical Twilight 5:55 AM CDT 8:51 PM CDT
Moon 2:42 PM CDT (3/11) 4:35 AM CDT (3/11)
Length of Visible Light 12h 39m
Length of Day
11h 41m
Waxing Gibbous, 78% of the Moon is Illuminated
Mar 11
Waxing Gibbous
Mar 16
Full
Mar 23
Last Quarter
Mar 30
New
Apr 7
First Quarter

Hourly Weather History & Observations

Time (CDT) Temp. Windchill Dew Point Humidity Pressure Visibility Wind Dir Wind Speed Gust Speed Precip Events Conditions
12:18 AM 35.6 °F - 32.0 °F 87% 29.69 in 10.0 mi Calm Calm - N/A   Scattered Clouds
12:39 AM 35.6 °F 32.8 °F 32.0 °F 87% 29.70 in 10.0 mi West 3.5 mph - N/A   Scattered Clouds
12:58 AM 35.6 °F 29.9 °F 30.2 °F 81% 29.70 in 10.0 mi WNW 6.9 mph - N/A   Mostly Cloudy
1:19 AM 35.6 °F 28.6 °F 32.0 °F 87% 29.70 in 10.0 mi WNW 9.2 mph - N/A   Clear
1:38 AM 37.4 °F 32.8 °F 32.0 °F 81% 29.71 in 10.0 mi WNW 5.8 mph - N/A   Unknown
1:59 AM 37.4 °F 30.8 °F 32.0 °F 81% 29.71 in 10.0 mi NW 9.2 mph - N/A   Unknown
2:18 AM 35.6 °F 29.9 °F 30.2 °F 81% 29.72 in 10.0 mi WNW 6.9 mph - N/A   Overcast
2:39 AM 37.4 °F 31.4 °F 30.2 °F 75% 29.72 in 10.0 mi WNW 8.1 mph - N/A   Overcast
2:59 AM 37.4 °F 30.3 °F 30.2 °F 75% 29.72 in 10.0 mi NW 10.4 mph - N/A   Mostly Cloudy
3:19 AM 42.8 °F 35.8 °F 30.2 °F 61% 29.72 in 10.0 mi NNW 13.8 mph 18.4 mph N/A   Scattered Clouds
3:39 AM 41.0 °F 35.8 °F 30.2 °F 65% 29.72 in 10.0 mi NNW 8.1 mph 16.1 mph N/A   Scattered Clouds
3:58 AM 41.0 °F 35.8 °F 30.2 °F 65% 29.72 in 10.0 mi NNW 8.1 mph - N/A   Drizzle
4:18 AM 39.2 °F 35.9 °F 32.0 °F 75% 29.72 in 10.0 mi North 4.6 mph - N/A Rain Light Rain
4:39 AM 35.6 °F 31.7 °F 32.0 °F 87% 29.72 in 7.0 mi NW 4.6 mph - 0.01 in Rain Rain
4:59 AM 37.4 °F 34.9 °F 33.8 °F 87% 29.73 in 7.0 mi WNW 3.5 mph - N/A Rain Rain
5:19 AM 37.4 °F 34.9 °F 33.8 °F 87% 29.74 in 7.0 mi NNW 3.5 mph - 0.01 in Rain Light Rain
5:39 AM 35.6 °F 32.8 °F 33.8 °F 93% 29.74 in 7.0 mi NNW 3.5 mph - 0.02 in Rain Heavy Rain
5:58 AM 35.6 °F 32.8 °F 33.8 °F 93% 29.74 in 7.0 mi WNW 3.5 mph - N/A   Drizzle
6:19 AM 35.6 °F 29.2 °F 33.8 °F 93% 29.74 in 10.0 mi NNW 8.1 mph - N/A Rain Light Rain
6:39 AM 35.6 °F 27.5 °F 33.8 °F 93% 29.74 in 7.0 mi North 11.5 mph 16.1 mph N/A   Drizzle
6:59 AM 35.6 °F 30.7 °F 32.0 °F 87% 29.76 in 7.0 mi North 5.8 mph - N/A   Drizzle
7:19 AM 35.6 °F 29.9 °F 32.0 °F 87% 29.77 in 10.0 mi North 6.9 mph - 0.01 in Rain Light Rain
7:38 AM 35.6 °F 29.2 °F 32.0 °F 87% 29.78 in 5.0 mi North 8.1 mph - 0.02 in Rain Rain
7:59 AM 35.6 °F 31.7 °F 32.0 °F 87% 29.79 in 7.0 mi North 4.6 mph - N/A Rain Rain
8:19 AM 35.6 °F 29.9 °F 32.0 °F 87% 29.80 in 7.0 mi NNW 6.9 mph - N/A Rain Rain
8:39 AM 35.6 °F - 32.0 °F 87% 29.80 in 10.0 mi Calm Calm - N/A   Scattered Clouds
8:59 AM 33.8 °F 30.8 °F 32.0 °F 93% 29.81 in 10.0 mi NW 3.5 mph - N/A   Unknown
9:19 AM 35.6 °F 29.9 °F 32.0 °F 87% 29.82 in 10.0 mi NNW 6.9 mph - N/A   Clear
9:39 AM 35.6 °F 30.7 °F 30.2 °F 81% 29.83 in 10.0 mi NNW 5.8 mph - N/A   Clear
9:59 AM 35.6 °F 29.9 °F 30.2 °F 81% 29.84 in 10.0 mi NNW 6.9 mph - N/A   Clear
10:18 AM 37.4 °F 31.4 °F 30.2 °F 75% 29.84 in 10.0 mi NNW 8.1 mph - N/A   Clear
10:39 AM 37.4 °F 31.4 °F 28.4 °F 70% 29.85 in 10.0 mi North 8.1 mph - N/A   Clear
10:59 AM 37.4 °F 32.1 °F 28.4 °F 70% 29.85 in 10.0 mi North 6.9 mph - N/A   Clear
11:18 AM 37.4 °F 32.1 °F 28.4 °F 70% 29.86 in 10.0 mi North 6.9 mph - N/A   Clear
11:39 AM 37.4 °F 32.1 °F 26.6 °F 65% 29.87 in 10.0 mi North 6.9 mph - N/A   Clear
11:59 AM 37.4 °F 30.8 °F 26.6 °F 65% 29.87 in 10.0 mi North 9.2 mph - N/A   Clear
12:19 PM 37.4 °F 29.8 °F 26.6 °F 65% 29.87 in 10.0 mi North 11.5 mph - N/A   Clear
12:39 PM 37.4 °F 31.4 °F 26.6 °F 65% 29.86 in 10.0 mi North 8.1 mph - N/A   Clear
12:58 PM 37.4 °F 30.3 °F 24.8 °F 60% 29.87 in 10.0 mi North 10.4 mph - N/A   Clear
1:19 PM 37.4 °F 30.3 °F 24.8 °F 60% 29.87 in 10.0 mi North 10.4 mph - N/A   Clear
1:39 PM 39.2 °F 33.6 °F 24.8 °F 56% 29.87 in 10.0 mi North 8.1 mph - N/A   Clear
1:58 PM 39.2 °F 32.0 °F 21.2 °F 49% 29.87 in 10.0 mi North 11.5 mph - N/A   Clear
2:19 PM 39.2 °F 35.0 °F 23.0 °F 52% 29.87 in 10.0 mi North 5.8 mph - N/A   Clear
2:39 PM 39.2 °F 32.0 °F 24.8 °F 56% 29.86 in 10.0 mi NNW 11.5 mph - N/A   Clear
2:59 PM 39.2 °F 33.0 °F 24.8 °F 56% 29.86 in 10.0 mi NNW 9.2 mph - N/A   Clear
3:19 PM 39.2 °F 32.0 °F 24.8 °F 56% 29.86 in 10.0 mi NNW 11.5 mph - N/A   Clear
3:38 PM 39.2 °F 31.2 °F 21.2 °F 49% 29.86 in 10.0 mi NNW 13.8 mph 18.4 mph N/A   Clear
3:59 PM 39.2 °F 32.5 °F 21.2 °F 49% 29.87 in 10.0 mi NNW 10.4 mph - N/A   Clear
4:19 PM 39.2 °F 31.6 °F 21.2 °F 49% 29.87 in 10.0 mi NNW 12.7 mph 18.4 mph N/A   Clear
4:39 PM 39.2 °F 31.2 °F 21.2 °F 49% 29.87 in 10.0 mi NNW 13.8 mph - N/A   Clear
4:59 PM 39.2 °F 31.2 °F 21.2 °F 49% 29.88 in 10.0 mi NNW 13.8 mph - N/A   Clear
5:18 PM 37.4 °F 29.3 °F 24.8 °F 60% 29.88 in 10.0 mi NW 12.7 mph - N/A   Clear
5:39 PM 37.4 °F 28.5 °F 24.8 °F 60% 29.89 in 10.0 mi NNW 15.0 mph 20.7 mph N/A   Clear
5:59 PM 37.4 °F 28.5 °F 24.8 °F 60% 29.89 in 10.0 mi NW 15.0 mph - N/A   Clear
6:19 PM 37.4 °F 29.3 °F 24.8 °F 60% 29.90 in 10.0 mi NW 12.7 mph - N/A   Clear
6:39 PM 37.4 °F 29.3 °F 24.8 °F 60% 29.92 in 10.0 mi NW 12.7 mph 17.3 mph N/A   Clear
6:59 PM 37.4 °F 28.2 °F 21.2 °F 52% 29.93 in 10.0 mi NW 16.1 mph 21.9 mph N/A   Clear
7:19 PM 37.4 °F 28.2 °F 21.2 °F 52% 29.94 in 10.0 mi NW 16.1 mph - N/A   Clear
7:38 PM 35.6 °F 26.2 °F 21.2 °F 56% 29.95 in 10.0 mi NW 15.0 mph 21.9 mph N/A   Clear
7:59 PM 35.6 °F 27.5 °F 21.2 °F 56% 29.96 in 10.0 mi NNW 11.5 mph - N/A   Clear
8:18 PM 35.6 °F 28.0 °F 21.2 °F 56% 29.97 in 10.0 mi NNW 10.4 mph - N/A   Clear
8:39 PM 33.8 °F 23.9 °F 19.4 °F 56% 29.97 in 10.0 mi NNW 15.0 mph - N/A   Clear
8:59 PM 33.8 °F 24.8 °F 21.2 °F 60% 29.98 in 10.0 mi NW 12.7 mph - N/A   Clear
9:18 PM 32.0 °F 22.5 °F 19.4 °F 60% 29.99 in 10.0 mi NW 12.7 mph - N/A   Clear
9:39 PM 32.0 °F 22.5 °F 19.4 °F 60% 29.99 in 10.0 mi NNW 12.7 mph 19.6 mph N/A   Clear
9:59 PM 32.0 °F 21.6 °F 17.6 °F 55% 29.99 in 10.0 mi NNW 15.0 mph - N/A   Clear
10:19 PM 30.2 °F 19.8 °F 19.4 °F 64% 29.99 in 10.0 mi NNW 13.8 mph 18.4 mph N/A   Clear
10:39 PM 30.2 °F 20.2 °F 17.6 °F 60% 29.99 in 10.0 mi NNW 12.7 mph 18.4 mph N/A   Clear
10:58 PM 30.2 °F 19.3 °F 17.6 °F 60% 29.99 in 10.0 mi NNW 15.0 mph 23.0 mph N/A   Clear
11:19 PM 30.2 °F 20.2 °F 17.6 °F 60% 29.99 in 10.0 mi NNW 12.7 mph 18.4 mph N/A   Clear
11:39 PM 28.4 °F 17.5 °F 17.6 °F 64% 29.99 in 10.0 mi NNW 13.8 mph - N/A   Clear
11:58 PM 28.4 °F 18.0 °F 19.4 °F 69% 29.99 in 10.0 mi NW 12.7 mph 20.7 mph N/A   Clear